Aérodrome :
LOGIN :

S'inscrire | Disclaimer

   EN    FR    IT 

 










Légende :    VFR   VFR Marginal   IFR   IFR Intensif   IFR Très Intensif
Visi : 
Plafond : 
>= 8 km
>= 3000ft
5 à 8 km
1000 à 3000 ft
1500m à 5 km
500 à 1000 ft
800 à 1500m
200 à 500 ft
< 800m
< 200 ft
Symboles :   Orages  Brouillard  Fortes neiges  Fortes précipitations  Vent > 20 kt
SIGMETs :   Divers  Orages  Givrage  Turbulence  Onde Orograph.  Cendres Volcan.






- Altitude de l'aérodrome : 1273 ft
- Code IATA : LJU


LJLJ - Ljubljana

DERNIER METAR :
  • 121900Z 29003KT 4000 -SN BR SCT010 BKN025 M02/M02 Q1003 R30/19//95 NOSIG

METARs EXPIRÉS :
  • 121830Z 30002KT 4000 -SN BR SCT010 BKN025 M02/M02 Q1003 R30/19//95 NOSIG
  • 121800Z 33002KT 4000 -SN BR SCT010 BKN025 M02/M02 Q1004 R30/19//95 NOSIG
  • 121730Z 30002KT 6000 -SN SCT010 BKN025 M01/M02 Q1004 R30/19//95 NOSIG
  • 121700Z 35003KT 8000 -SN FEW013 BKN030 M01/M03 Q1004 NOSIG
  • 121630Z 34002KT 6000 -SN SCT011 BKN027 M02/M03 Q1004 NOSIG

TAF AMD TAF LJLJ
Valide du 12 à 18h jusqu'au 13 à 18h UTC


121846Z 1218/1318 30003KT 9999 SCT027 OVC045
TEMPO 1218/1311 6000 -SN FEW010 BKN023 OVC035
PROB40
TEMPO 1218/1303 3500 SN BR OVC017
BECMG 1311/1314 3500 RASN BKN015 OVC030
BECMG 1314/1316 2000 SN OVC012
PROB40 1315/1318 0800 SN VV003



MET'MAP, la Météo Aéronautique d'un coup d'oeil ! - Copyright ORBIFLY Décembre 2007 - Disclaimer

ORBIFLY MET'MAP TEAM :

Programmation & Développement : Alexandra Zaïnal
Sur une idée originale de : Baudouin d'Aumeries
Assistance à la programmation : Marc-Olivier Méhu
Soutien technique & logistique : Manuel Goepfert

Contact : metmap@orbifly.com




SOURCES & CREDITS :

   NOAA